Big Rapids, MI

5:29 AM EST on November 12, 2019 (GMT -0500)
Roben-Hood

Weather History for KRQB - May, 2019

Change the Weather History Date:

Thursday, May 30, 2019

  Actual Average Record
Temperature  
Mean Temperature 61 °F -  
Max Temperature 71 °F 72 °F 89 °F (1991)
Min Temperature 51 °F 50 °F 30 °F (2001)
Degree Days  
Heating Degree Days 4    
Growing Degree Days 11 (Base 50)    
Moisture  
Dew Point 54 °F    
Average Humidity 81    
Maximum Humidity 97    
Minimum Humidity 50    
Precipitation  
Precipitation 0.00 in - - ()
Sea Level Pressure  
Sea Level Pressure 29.75 in    
Wind  
Wind Speed 3 mph (West)    
Max Wind Speed 17 mph    
Max Gust Speed 23 mph    
Visibility 10 miles    
Events      
Averages and records for this station are not official NWS values.
T = Trace of Precipitation, MM = Missing Value Source: NWS Daily Summary

Daily Weather History Graph

Daily Weather History Graph

Search for Another Location

Airport or City:

Astronomy

May. 30, 2019 Rise Set
Actual Time 6:04 AM EDT 9:15 PM EDT
Civil Twilight 5:29 AM EDT 9:50 PM EDT
Nautical Twilight 4:44 AM EDT 10:35 PM EDT
Astronomical Twilight 3:50 AM EDT 11:30 PM EDT
Moon 4:20 AM EDT (5/30) 5:12 PM EDT (5/30)
Length of Visible Light 16h 20m
Length of Day
15h 10m
Waning Crescent, 15% of the Moon is Illuminated
May 30
Waning Crescent
Jun 3
New
Jun 10
First Quarter
Jun 17
Full
Jun 25
Last Quarter

Hourly Weather History & Observations

Time (EDT) Temp. Dew Point Humidity Pressure Visibility Wind Dir Wind Speed Gust Speed Precip Events Conditions
12:15 AM 57.2 °F 53.1 °F 86% 29.77 in 10.0 mi Calm Calm - N/A   Clear
12:16 AM 57.0 °F 53.1 °F 87% 29.77 in 10.0 mi Calm Calm - N/A   Clear
12:35 AM 55.8 °F 52.7 °F 89% 29.77 in 10.0 mi Calm Calm - N/A   Clear
12:36 AM 55.8 °F 52.9 °F 90% 29.77 in 10.0 mi Calm Calm - N/A   Clear
12:55 AM 54.7 °F 52.0 °F 91% 29.78 in 10.0 mi Calm Calm - N/A   Clear
1:35 AM 55.4 °F 53.1 °F 92% 29.76 in 10.0 mi SW 3.5 mph - N/A   Clear
1:36 AM 55.4 °F 53.1 °F 92% 29.76 in 10.0 mi SW 3.5 mph - N/A   Clear
1:55 AM 54.0 °F 52.0 °F 93% 29.76 in 10.0 mi North 3.5 mph - N/A   Clear
2:15 AM 54.5 °F 52.7 °F 94% 29.76 in 10.0 mi Calm Calm - N/A   Clear
2:35 AM 54.5 °F 52.3 °F 92% 29.75 in 10.0 mi Calm Calm - N/A   Clear
2:36 AM 54.5 °F 52.3 °F 92% 29.74 in 10.0 mi Calm Calm - N/A   Clear
2:55 AM 53.1 °F 51.4 °F 94% 29.74 in 10.0 mi Calm Calm - N/A   Clear
2:56 AM 53.1 °F 51.4 °F 94% 29.74 in 10.0 mi Calm Calm - N/A   Clear
3:15 AM 52.2 °F 50.5 °F 94% 29.74 in 10.0 mi Calm Calm - N/A   Clear
3:16 AM 52.3 °F 50.7 °F 94% 29.74 in 10.0 mi Calm Calm - N/A   Clear
3:35 AM 51.6 °F 50.2 °F 95% 29.75 in 10.0 mi Calm Calm - N/A   Clear
3:55 AM 52.3 °F 51.1 °F 95% 29.75 in 10.0 mi Calm Calm - N/A   Clear
4:15 AM 52.2 °F 50.9 °F 95% 29.75 in 10.0 mi East 6.9 mph - N/A   Clear
4:16 AM 52.2 °F 50.9 °F 95% 29.74 in 10.0 mi ESE 3.5 mph - N/A   Clear
4:35 AM 52.2 °F 50.9 °F 95% 29.74 in 10.0 mi East 6.9 mph - N/A   Clear
4:55 AM 52.2 °F 50.7 °F 95% 29.73 in 10.0 mi Calm Calm - N/A   Clear
5:15 AM 51.8 °F 50.9 °F 97% 29.73 in 10.0 mi SW 4.6 mph - N/A   Clear
5:16 AM 51.8 °F 50.7 °F 96% 29.73 in 10.0 mi SSW 6.9 mph - N/A   Clear
5:35 AM 51.8 °F 50.9 °F 97% 29.73 in 10.0 mi SSW 6.9 mph - N/A   Clear
5:55 AM 51.3 °F 50.2 °F 96% 29.73 in 10.0 mi Calm Calm - N/A   Clear
6:15 AM 52.0 °F 51.1 °F 97% 29.73 in 10.0 mi Calm Calm - N/A   Clear
6:16 AM 52.0 °F 51.1 °F 97% 29.73 in 10.0 mi Calm Calm - N/A   Clear
6:35 AM 52.0 °F 51.1 °F 97% 29.72 in 10.0 mi Calm Calm - N/A   Clear
6:36 AM 52.0 °F 51.1 °F 97% 29.73 in 10.0 mi Calm Calm - N/A   Clear
6:55 AM 52.3 °F 51.3 °F 96% 29.72 in 10.0 mi North - - N/A   Clear
6:56 AM 52.2 °F 51.3 °F 97% 29.72 in 10.0 mi North - - N/A   Clear
7:15 AM 52.7 °F 51.8 °F 97% 29.73 in 10.0 mi Calm Calm - N/A   Clear
7:35 AM 52.9 °F 52.0 °F 97% 29.74 in 10.0 mi Calm Calm - N/A   Clear
7:36 AM 52.9 °F 52.0 °F 97% 29.74 in 10.0 mi North - - N/A   Clear
7:55 AM 53.6 °F 52.3 °F 95% 29.74 in 10.0 mi East 3.5 mph - N/A   Clear
7:56 AM 53.6 °F 52.3 °F 95% 29.74 in 10.0 mi ESE 3.5 mph - N/A   Clear
8:15 AM 54.0 °F 52.9 °F 96% 29.75 in 10.0 mi Calm Calm - N/A   Scattered Clouds
8:35 AM 55.8 °F 54.5 °F 96% 29.75 in 10.0 mi West 9.2 mph - N/A   Overcast
8:55 AM 56.7 °F 55.0 °F 94% 29.74 in 10.0 mi SW 3.5 mph - N/A   Overcast
8:56 AM 56.7 °F 55.0 °F 94% 29.74 in 10.0 mi Calm Calm - N/A   Overcast
9:15 AM 58.1 °F 56.1 °F 93% 29.74 in 10.0 mi SW 3.5 mph - N/A   Overcast
9:35 AM 59.2 °F 56.7 °F 91% 29.74 in 10.0 mi SW 5.8 mph - N/A   Mostly Cloudy
9:55 AM 59.9 °F 57.0 °F 90% 29.74 in 10.0 mi WNW 3.5 mph - N/A   Mostly Cloudy
10:15 AM 60.8 °F 57.2 °F 88% 29.73 in 10.0 mi NW 4.6 mph - N/A   Scattered Clouds
10:16 AM 60.8 °F 57.2 °F 88% 29.73 in 10.0 mi West 5.8 mph - N/A   Scattered Clouds
10:35 AM 61.7 °F 57.7 °F 87% 29.73 in 10.0 mi West 6.9 mph - N/A   Scattered Clouds
10:36 AM 61.7 °F 57.7 °F 87% 29.73 in 10.0 mi West 5.8 mph - N/A   Scattered Clouds
10:55 AM 62.4 °F 58.3 °F 86% 29.73 in 10.0 mi NW 3.5 mph - N/A   Scattered Clouds
11:15 AM 63.1 °F 58.6 °F 85% 29.73 in 10.0 mi West 5.8 mph - N/A   Scattered Clouds
11:35 AM 63.7 °F 58.8 °F 84% 29.73 in 10.0 mi WNW 5.8 mph - N/A   Scattered Clouds
11:36 AM 63.7 °F 58.8 °F 84% 29.73 in 10.0 mi WNW 4.6 mph - N/A   Scattered Clouds
11:55 AM 64.0 °F 58.6 °F 83% 29.73 in 10.0 mi WNW 5.8 mph - N/A   Clear
11:56 AM 64.2 °F 58.8 °F 83% 29.73 in 10.0 mi WNW 5.8 mph - N/A   Clear
12:15 PM 64.9 °F 58.8 °F 81% 29.73 in 10.0 mi WNW 5.8 mph - N/A   Mostly Cloudy
12:35 PM 65.8 °F 58.6 °F 78% 29.72 in 10.0 mi West 5.8 mph - N/A   Overcast
12:55 PM 67.1 °F 59.0 °F 75% 29.73 in 10.0 mi West 8.1 mph - N/A   Scattered Clouds
12:56 PM 67.1 °F 59.0 °F 75% 29.73 in 10.0 mi West 6.9 mph - N/A   Scattered Clouds
1:15 PM 66.6 °F 58.8 °F 76% 29.74 in 10.0 mi WSW 9.2 mph - N/A   Mostly Cloudy
1:16 PM 66.6 °F 58.6 °F 76% 29.74 in 10.0 mi WSW 9.2 mph - N/A   Mostly Cloudy
1:35 PM 66.6 °F 58.3 °F 75% 29.74 in 10.0 mi WSW 6.9 mph - N/A   Mostly Cloudy
1:55 PM 66.4 °F 57.4 °F 73% 29.74 in 10.0 mi WSW 10.4 mph 20.7 mph N/A   Scattered Clouds
2:15 PM 65.5 °F 57.6 °F 76% 29.74 in 10.0 mi SW 15.0 mph 20.7 mph N/A   Clear
2:16 PM 65.5 °F 57.6 °F 76% 29.74 in 10.0 mi SW 13.8 mph 20.7 mph N/A   Clear
2:35 PM 67.5 °F 59.9 °F 77% 29.74 in 10.0 mi WSW 17.3 mph 23.0 mph N/A   Clear
2:55 PM 67.1 °F 58.6 °F 74% 29.74 in 10.0 mi WSW 13.8 mph 20.7 mph N/A   Clear
3:15 PM 67.5 °F 58.6 °F 73% 29.74 in 10.0 mi West 13.8 mph 17.3 mph N/A   Clear
3:16 PM 67.5 °F 58.6 °F 73% 29.74 in 10.0 mi West 13.8 mph 17.3 mph N/A   Clear
3:35 PM 67.1 °F 57.4 °F 71% 29.74 in 10.0 mi West 10.4 mph 19.6 mph N/A   Clear
3:55 PM 67.1 °F 57.4 °F 71% 29.74 in 10.0 mi West 10.4 mph - N/A   Clear
3:56 PM 67.1 °F 57.2 °F 70% 29.74 in 10.0 mi West 11.5 mph - N/A   Clear
4:16 PM 67.6 °F 57.0 °F 69% 29.74 in 10.0 mi West 9.2 mph - N/A   Clear
4:39 PM 68.7 °F 56.7 °F 65% 29.74 in 10.0 mi West 5.8 mph - N/A   Clear
4:56 PM 69.6 °F 56.3 °F 63% 29.74 in 10.0 mi West 6.9 mph - N/A   Clear
5:15 PM 69.8 °F 55.4 °F 60% 29.74 in 10.0 mi West 8.1 mph - N/A   Clear
5:35 PM 70.3 °F 55.8 °F 60% 29.74 in 10.0 mi WSW 8.1 mph - N/A   Clear
5:36 PM 70.2 °F 55.9 °F 61% 29.74 in 10.0 mi WSW 6.9 mph - N/A   Clear
5:55 PM 70.5 °F 56.5 °F 61% 29.74 in 10.0 mi West 6.9 mph - N/A   Clear
6:15 PM 70.9 °F 56.3 °F 60% 29.74 in 10.0 mi WSW 6.9 mph - N/A   Clear
6:35 PM 71.4 °F 51.6 °F 50% 29.74 in 10.0 mi West 8.1 mph - N/A   Clear
6:36 PM 71.2 °F 51.4 °F 50% 29.74 in 10.0 mi West 6.9 mph - N/A   Clear
6:55 PM 70.7 °F 52.0 °F 51% 29.74 in 10.0 mi WNW 8.1 mph - N/A   Clear
6:56 PM 70.7 °F 52.0 °F 51% 29.74 in 10.0 mi West 8.1 mph - N/A   Clear
7:15 PM 70.2 °F 52.2 °F 53% 29.74 in 10.0 mi WNW 9.2 mph - N/A   Clear
7:35 PM 69.4 °F 52.0 °F 54% 29.75 in 10.0 mi WNW 6.9 mph - N/A   Clear
7:36 PM 69.3 °F 52.0 °F 54% 29.75 in 10.0 mi WNW 8.1 mph - N/A   Clear
7:55 PM 68.4 °F 51.8 °F 55% 29.76 in 10.0 mi WNW 8.1 mph - N/A   Clear
7:56 PM 68.2 °F 51.8 °F 56% 29.76 in 10.0 mi WNW 9.2 mph - N/A   Clear
8:15 PM 67.5 °F 52.2 °F 58% 29.77 in 10.0 mi WNW 5.8 mph - N/A   Clear
8:16 PM 67.3 °F 52.2 °F 58% 29.77 in 10.0 mi WNW 5.8 mph - N/A   Clear
8:35 PM 66.2 °F 52.5 °F 61% 29.77 in 10.0 mi WNW 3.5 mph - N/A   Clear
8:55 PM 64.6 °F 52.7 °F 65% 29.78 in 10.0 mi West 3.5 mph - N/A   Clear
9:15 PM 63.0 °F 53.1 °F 70% 29.78 in 10.0 mi West 4.6 mph - N/A   Clear
9:16 PM 63.0 °F 52.9 °F 70% 29.79 in 10.0 mi West 4.6 mph - N/A   Clear
9:35 PM 61.3 °F 52.9 °F 74% 29.79 in 10.0 mi WNW 3.5 mph - N/A   Clear
9:55 PM 59.7 °F 52.9 °F 78% 29.80 in 10.0 mi WNW 4.6 mph - N/A   Clear
10:15 PM 59.7 °F 53.1 °F 79% 29.80 in 10.0 mi NNW 4.6 mph - N/A   Clear
10:16 PM 59.7 °F 53.1 °F 79% 29.80 in 10.0 mi NNW 3.5 mph - N/A   Clear
10:35 PM 59.0 °F 53.1 °F 81% 29.81 in 10.0 mi NW 4.6 mph - N/A   Clear
10:55 PM 59.0 °F 53.4 °F 82% 29.82 in 10.0 mi Calm Calm - N/A   Clear
11:15 PM 55.4 °F 51.8 °F 88% 29.82 in 10.0 mi Calm Calm - N/A   Clear
11:35 PM 55.4 °F 53.1 °F 92% 29.82 in 10.0 mi Calm Calm - N/A   Clear
11:55 PM 54.3 °F 51.6 °F 91% 29.82 in 10.0 mi Calm Calm - N/A   Clear
11:56 PM 54.3 °F 51.6 °F 91% 29.82 in 10.0 mi Calm Calm - N/A   Clear